Kezdőlap
METAR-TAF:

METAR-TAF

Repülőterek :

Belgrád, Szerbia

földrajzi szélesség: 44-49N, földrajzi hosszúság: 020-17E, magasság: 96 m

Jelenlegi meteorológiai megfigyelések

A jelentés 14 perccel ezelõtt készült, 06:00 UTC
Keleti szél 10 kt
Hőmérséklet 1°C
Páratartalom 80%
Légköri nyomás 1014 hPa
Látótávolság 10 km, vagy több
Szakadozott felhőzet 3300 lábon

METAR: LYBE 230600Z 10010KT 9999 BKN033 01/M02 Q1014 NOSIG

Idő: 07:14 (06:14 UTC)

Előrejelzés

A jelentés 1 órával és 14 perccel ezelõtt készült, 05:00 UTC
Az előrejelzés 23-én 06 óra UTC és 24-én 06 óra UTC között érvényes
Kelet-délkeleti szél 12 kt
Látótávolság 10 km, vagy több
Szakadozott felhőzet 3500 lábon
23-én 22 óra UTC és 24-én 01 óra UTC között fokozatosan kialakuló
Északkeleti szél 6 kt

TAF: LYBE 230500Z 2306/2406 11012KT 9999 BKN035 TX08/2312Z TN01/2306Z BECMG 2322/2401 05006KT

Meteorológiai megfigyelések és előrejelzések több, mint 4000 repülőtéren (METAR és TAF jelentéseket).

A térképen piros és sárga pontok jelzik az elérhető meteorológiai állomásokat.

Mozgassa az egeret a pont fölött, hogy megjelenjen az állomás neve.

Azután kattintson az időjárási megfigyelések és előrejelzések megtekintéséhez.

A térkép megváltoztatása: kattintson a fekete keresztel jelölt zöld gombra ráközelítéshez, a vonallal jelölt zöld gombra távolításhoz, vagy a zöld nyilakra a szomszédos térképek eléréséhez.


METAR-TAF: